Terminal Aerodrome Forecast
Issued by NWS

Home | Current Version | Previous Version | Text Only | Print | Product List | Glossary Off
Versions: 1 2 3 4 5 6 7 8 9 10 11 12 13 14

310
FTUS45 KGGW 231130
TAFSDY
TAF
KSDY 231130Z 2312/2412 VRB03KT 6SM BR SCT018 OVC060
     FM231600 04005KT 4SM BR OVC016
     FM232100 04008KT P6SM SCT012 OVC020
     FM240500 05005KT P6SM SCT014 BKN035=

USA.gov is the U.S. government's official web portal to all federal, state and local government web resources and services.